createdAt,value
2023-04-06T00:03:44.408Z,7.80
2023-04-06T00:08:46.372Z,9.35
2023-04-06T00:13:48.293Z,7.32
2023-04-06T00:18:50.216Z,7.72
2023-04-06T00:23:52.094Z,7.88
2023-04-06T00:28:54.031Z,7.50
2023-04-06T00:33:56.232Z,7.65
2023-04-06T00:38:58.225Z,7.75
2023-04-06T00:44:00.318Z,7.50
2023-04-06T00:49:02.254Z,8.13
2023-04-06T00:54:04.383Z,8.07
2023-04-06T00:59:08.205Z,7.55
2023-04-06T01:04:10.804Z,7.60
2023-04-06T01:09:17.449Z,7.70
2023-04-06T01:14:20.430Z,7.70
2023-04-06T01:19:29.291Z,8.60
2023-04-06T01:24:31.986Z,7.13
2023-04-06T01:30:12.327Z,7.40
2023-04-06T01:35:28.067Z,7.38
2023-04-06T01:40:45.784Z,7.80
2023-04-06T01:45:48.221Z,7.03
2023-04-06T01:50:55.429Z,6.60
2023-04-06T01:56:03.298Z,8.07
2023-04-06T02:01:08.921Z,8.63
2023-04-06T02:06:23.537Z,7.47
2023-04-06T02:11:25.825Z,7.88
2023-04-06T02:16:30.941Z,8.05
2023-04-06T02:21:32.986Z,7.35
2023-04-06T02:26:35.014Z,6.97
2023-04-06T02:31:36.961Z,7.75
2023-04-06T02:36:40.058Z,8.07
2023-04-06T02:41:43.083Z,7.25
2023-04-06T02:46:47.110Z,9.30
2023-04-06T02:51:49.048Z,7.68
2023-04-06T02:56:58.460Z,11.40
2023-04-06T03:02:09.201Z,8.00
2023-04-06T03:07:11.945Z,7.70
2023-04-06T03:12:14.628Z,8.30
2023-04-06T03:17:36.468Z,8.35
2023-04-06T03:22:42.566Z,8.85
2023-04-06T03:27:48.449Z,8.20
2023-04-06T03:32:53.983Z,8.43
2023-04-06T03:37:58.761Z,10.27
2023-04-06T03:43:01.379Z,8.80
2023-04-06T03:48:04.615Z,8.40
2023-04-06T03:53:10.590Z,8.85
2023-04-06T03:58:12.503Z,10.70
2023-04-06T04:03:14.547Z,8.83
2023-04-06T04:08:17.679Z,9.07
2023-04-06T04:13:20.391Z,10.73
2023-04-06T04:18:25.466Z,12.38
2023-04-06T04:23:27.412Z,10.63
2023-04-06T04:28:29.608Z,10.90
2023-04-06T04:33:31.970Z,9.07
2023-04-06T04:38:37.162Z,9.35
2023-04-06T04:43:39.376Z,9.30
2023-04-06T04:48:41.725Z,12.13
2023-04-06T04:53:44.332Z,11.73
2023-04-06T04:58:55.449Z,9.73
2023-04-06T05:03:58.731Z,10.60
2023-04-06T05:09:01.092Z,10.53
2023-04-06T05:14:07.240Z,11.13
2023-04-06T05:19:09.696Z,16.87
2023-04-06T05:24:17.494Z,10.53
2023-04-06T05:29:22.354Z,11.03
2023-04-06T05:34:24.884Z,11.63
2023-04-06T05:39:27.326Z,10.73
2023-04-06T05:44:29.758Z,10.50
2023-04-06T05:49:43.020Z,15.90
2023-04-06T05:54:51.186Z,14.63
2023-04-06T05:59:53.388Z,16.75
2023-04-06T06:04:57.652Z,15.05
2023-04-06T06:10:01.819Z,14.02
2023-04-06T06:15:09.370Z,14.85
2023-04-06T06:20:16.276Z,12.95
2023-04-06T06:25:19.401Z,13.40
2023-04-06T06:30:23.560Z,17.58
2023-04-06T06:35:26.703Z,19.98
2023-04-06T06:40:29.387Z,17.98
2023-04-06T06:45:32.270Z,16.98
2023-04-06T06:50:34.533Z,15.82
2023-04-06T06:55:36.456Z,14.63
2023-04-06T07:00:38.463Z,14.65
2023-04-06T07:05:46.480Z,14.65
2023-04-06T07:10:48.898Z,17.77
2023-04-06T07:15:51.750Z,19.80
2023-04-06T07:20:53.672Z,19.73
2023-04-06T07:25:55.734Z,19.05
2023-04-06T07:30:57.458Z,21.38
2023-04-06T07:36:00.131Z,20.42
2023-04-06T07:41:04.058Z,20.10
2023-04-06T07:46:07.210Z,22.02
2023-04-06T07:51:09.908Z,21.52
2023-04-06T07:56:16.478Z,19.95
2023-04-06T08:01:18.294Z,20.40
2023-04-06T08:06:20.224Z,21.25
2023-04-06T08:11:22.395Z,21.50
2023-04-06T08:16:25.033Z,22.52
2023-04-06T08:21:26.766Z,21.42
2023-04-06T08:26:29.116Z,20.77
2023-04-06T08:31:31.677Z,20.75
2023-04-06T08:36:33.581Z,22.42
2023-04-06T08:41:35.852Z,21.70
2023-04-06T08:46:37.655Z,21.75
2023-04-06T08:51:39.784Z,20.52
2023-04-06T08:56:42.312Z,21.80
2023-04-06T09:01:46.959Z,21.00
2023-04-06T09:06:48.894Z,20.50
2023-04-06T09:11:52.572Z,20.15
2023-04-06T09:16:54.262Z,20.45
2023-04-06T09:22:08.340Z,21.13
2023-04-06T09:27:10.721Z,20.50
2023-04-06T09:32:13.226Z,19.75
2023-04-06T09:37:20.016Z,21.33
2023-04-06T09:42:26.595Z,20.45
2023-04-06T09:47:29.724Z,21.00
2023-04-06T09:52:42.919Z,21.30
2023-04-06T09:58:01.550Z,20.20
2023-04-06T10:03:11.598Z,20.35
2023-04-06T10:08:18.388Z,20.20
2023-04-06T10:13:20.665Z,21.48
2023-04-06T10:24:46.609Z,21.48
2023-04-06T10:35:19.876Z,21.10
2023-04-06T10:40:56.840Z,19.75
2023-04-06T10:46:01.716Z,21.25
2023-04-06T10:51:44.469Z,19.83
2023-04-06T10:56:53.407Z,20.42
2023-04-06T11:01:56.986Z,20.75
2023-04-06T11:06:59.047Z,20.02
2023-04-06T11:13:10.408Z,20.95
2023-04-06T11:18:33.954Z,20.75
2023-04-06T11:36:10.593Z,20.60
2023-04-06T11:41:14.172Z,20.52
2023-04-06T11:46:20.808Z,20.48
2023-04-06T11:51:31.926Z,19.67
2023-04-06T11:56:33.941Z,20.70
2023-04-06T12:01:49.097Z,19.90
2023-04-06T12:06:52.171Z,19.92
2023-04-06T12:11:53.977Z,20.30
2023-04-06T12:16:55.916Z,20.30
2023-04-06T12:22:00.090Z,20.63
2023-04-06T12:27:09.387Z,20.17
2023-04-06T12:32:12.773Z,20.48
2023-04-06T12:37:14.459Z,19.92
2023-04-06T12:42:16.832Z,20.52
2023-04-06T12:47:19.091Z,19.67
2023-04-06T12:52:21.326Z,19.33
2023-04-06T12:57:23.034Z,19.88
2023-04-06T13:02:27.979Z,19.60
2023-04-06T13:07:29.723Z,20.23
2023-04-06T13:12:31.462Z,19.05
2023-04-06T13:17:33.186Z,20.33
2023-04-06T13:22:35.143Z,20.85
2023-04-06T13:27:36.878Z,21.05
2023-04-06T13:32:38.595Z,20.20
2023-04-06T13:37:40.427Z,20.15
2023-04-06T13:42:44.951Z,19.42
2023-04-06T13:47:46.895Z,20.10
2023-04-06T13:52:49.991Z,19.00
2023-04-06T13:57:52.152Z,21.13
2023-04-06T14:02:56.969Z,20.45
2023-04-06T14:07:58.664Z,20.17
2023-04-06T14:13:00.313Z,20.63
2023-04-06T14:18:02.567Z,21.70
2023-04-06T14:23:06.857Z,20.15
2023-04-06T14:28:08.513Z,20.27
2023-04-06T14:33:10.150Z,20.55
2023-04-06T14:38:11.820Z,20.10
2023-04-06T14:43:13.454Z,21.08
2023-04-06T14:48:16.779Z,19.95
2023-04-06T14:53:18.420Z,19.50
2023-04-06T14:58:20.910Z,19.20
2023-04-06T15:03:22.800Z,21.80
2023-04-06T15:08:24.989Z,21.23
2023-04-06T15:13:26.591Z,21.98
2023-04-06T15:18:29.633Z,22.25
2023-04-06T15:23:31.383Z,21.30
2023-04-06T15:28:33.023Z,23.42
2023-04-06T15:33:34.603Z,23.38
2023-04-06T15:38:36.249Z,22.15
2023-04-06T15:43:39.062Z,22.98
2023-04-06T15:48:42.198Z,22.17
2023-04-06T15:53:44.226Z,23.33
2023-04-06T15:58:46.035Z,23.88
2023-04-06T16:03:48.093Z,24.02
2023-04-06T16:08:49.814Z,24.08
2023-04-06T16:13:55.185Z,23.08
2023-04-06T16:18:57.283Z,22.95
2023-04-06T16:23:59.905Z,23.02
2023-04-06T16:29:02.104Z,23.60
2023-04-06T16:34:03.850Z,23.95
2023-04-06T16:39:05.462Z,24.30
2023-04-06T16:44:07.302Z,23.60
2023-04-06T16:49:08.954Z,23.40
2023-04-06T16:54:10.763Z,23.48
2023-04-06T16:59:12.584Z,23.90
2023-04-06T17:04:14.297Z,22.95
2023-04-06T17:09:16.482Z,23.92
2023-04-06T17:14:19.111Z,23.35
2023-04-06T17:19:20.735Z,24.60
2023-04-06T17:24:22.397Z,25.10
2023-04-06T17:29:24.071Z,24.95
2023-04-06T17:34:26.225Z,25.10
2023-04-06T17:39:27.805Z,24.45
2023-04-06T17:44:29.396Z,24.40
2023-04-06T17:49:31.330Z,27.23
2023-04-06T17:54:36.935Z,25.42
2023-04-06T17:59:38.805Z,26.70
2023-04-06T18:04:44.298Z,26.25
2023-04-06T18:09:46.044Z,25.85
2023-04-06T18:14:47.672Z,26.15
2023-04-06T18:19:49.298Z,24.13
2023-04-06T18:24:51.252Z,23.98
2023-04-06T18:29:53.323Z,24.98
2023-04-06T18:34:57.508Z,23.73
2023-04-06T18:39:59.136Z,24.05
2023-04-06T18:45:00.916Z,24.92
2023-04-06T18:50:02.552Z,21.95
2023-04-06T18:55:04.625Z,24.77
2023-04-06T19:00:06.927Z,23.83
2023-04-06T19:05:10.747Z,23.55
2023-04-06T19:10:12.593Z,22.60
2023-04-06T19:15:14.665Z,24.48
2023-04-06T19:20:16.589Z,23.30
2023-04-06T19:25:18.854Z,23.90
2023-04-06T19:30:20.812Z,22.65
2023-04-06T19:35:22.750Z,21.50
2023-04-06T19:40:24.593Z,20.60
2023-04-06T19:45:26.473Z,20.50
2023-04-06T19:50:28.444Z,20.85
2023-04-06T19:55:30.991Z,21.67
2023-04-06T20:00:32.945Z,18.92
2023-04-06T20:05:34.972Z,19.50
2023-04-06T20:10:36.880Z,18.80
2023-04-06T20:15:38.756Z,20.02
2023-04-06T20:20:40.828Z,20.52
2023-04-06T20:25:42.711Z,18.13
2023-04-06T20:30:44.591Z,20.52
2023-04-06T20:35:46.364Z,19.58
2023-04-06T20:40:48.772Z,19.35
2023-04-06T20:45:57.800Z,20.50
2023-04-06T20:50:59.639Z,19.23
2023-04-06T20:56:02.522Z,18.90
2023-04-06T21:01:15.044Z,21.23
2023-04-06T21:06:16.928Z,21.73
2023-04-06T21:11:18.775Z,19.60
2023-04-06T21:16:21.006Z,18.07
2023-04-06T21:21:22.945Z,18.40
2023-04-06T21:26:24.771Z,17.17
2023-04-06T21:31:26.662Z,17.10
2023-04-06T21:36:28.790Z,17.23
2023-04-06T21:41:31.079Z,16.67
2023-04-06T21:46:33.414Z,17.50
2023-04-06T21:51:35.362Z,16.40
2023-04-06T21:56:37.272Z,16.57
2023-04-06T22:01:39.221Z,15.93
2023-04-06T22:06:41.953Z,20.87
2023-04-06T22:11:43.770Z,18.07
2023-04-06T22:16:46.007Z,17.60
2023-04-06T22:21:48.008Z,15.30
2023-04-06T22:26:50.019Z,16.67
2023-04-06T22:31:51.955Z,19.40
2023-04-06T22:36:53.816Z,15.27
2023-04-06T22:41:55.662Z,16.17
2023-04-06T22:46:57.556Z,17.73
2023-04-06T22:51:59.392Z,17.03
2023-04-06T22:57:01.247Z,16.37
2023-04-06T23:02:03.469Z,17.50
2023-04-06T23:07:06.044Z,16.37
2023-04-06T23:12:08.108Z,18.13
2023-04-06T23:17:09.995Z,20.17
2023-04-06T23:22:11.910Z,17.70
2023-04-06T23:27:13.743Z,14.83
2023-04-06T23:32:15.818Z,17.13
2023-04-06T23:37:17.771Z,20.43
2023-04-06T23:42:19.633Z,18.83
2023-04-06T23:47:21.482Z,18.77
2023-04-06T23:52:23.357Z,16.63
2023-04-06T23:57:25.384Z,16.20
